Tropical Cyclones
[Index]
Main Index Home Page Stock Weather Photos Extreme Storms Discussion Storm News and Storm Chasing Reports Tropical Cyclones / Hurricanes / Typhoons Weather Data and Links Wild Fires / Bushfires Weather Observation Techniques Weather Picture Catalogue Tornado Pictures and Reports Stock Video Footage and DVDs for sale
Season 1982-1983 Tropical Cyclone JOTI Track Map
Season 1982-1983 Summaries: [BoM-AU] [JTWC-AU] [JTWC-SIO] [JTWC-SPAC] [JTWC-SH]
<<- Previous TC | JTWC 1982-1983 Season | Next TC ->>

click for intensity scale information  Lat/long Grid: Show Hide

 Date Labels: Show Hide

Joint Typhoon Warning Centre Cyclone Data

Name: JOTI

31 Oct 1982 12:00 UTC to 08 Nov 1982 00:00 UTC

    date/time    lat    long     hPa   cat  kts
1982-10-31 12    9.9   171.2                  30          
1982-10-31 18    9.8   170.8                  35          
1982-11-01 00    9.7   170.7            1     40          
1982-11-01 06    9.8   170.9            1     40          
1982-11-01 12    9.9   171.2            1     40          
1982-11-01 18   10.1   171.3            1     40          
1982-11-02 00   10.5   171.4            1     45          
1982-11-02 06   11.1   171.4            1     45          
1982-11-02 12   11.8   171.1            1     50          
1982-11-02 18   12.2   170.4            1     50          
1982-11-03 00   12.6   169.7            2     55          
1982-11-03 06   12.9   169.0            2     55          
1982-11-03 12   13.2   168.4            2     60          
1982-11-03 18   13.7   167.9            2     60          
1982-11-04 00   14.2   167.4            2     65          
1982-11-04 06   14.6   166.9            2     65          
1982-11-04 12   14.9   166.5            2     65          
1982-11-04 18   15.1   166.1            2     65          
1982-11-05 00   15.3   165.8            2     60          
1982-11-05 06   15.4   165.4            2     60          
1982-11-05 12   15.5   165.0            2     60          
1982-11-05 18   15.6   164.8            2     60          
1982-11-06 00   15.9   164.6            2     55          
1982-11-06 06   16.2   164.5            2     55          
1982-11-06 12   16.6   164.3            1     50          
1982-11-06 18   16.9   164.1            1     50          
1982-11-07 00   17.3   163.9            1     45          
1982-11-07 06   17.6   163.6            1     40          
1982-11-07 12   17.8   163.2                  35          
1982-11-07 18   18.0   162.7                  30          
1982-11-08 00   18.1   162.0                  30          
Winds are 1-min average.

Tropical cyclone tracks developed by Michael Bath using data from the Joint Typhoon Warning Centre Best Tracks and Google Maps.


[Australian Severe Weather index] [Copyright Notice] [Email Contacts] [Search This Site] [Privacy Policy]
Document: tropical_cyclone_joti.htm Updated: 18 September 2016